createdAt,value
2017-05-11T00:00:47.221Z,3.30
2017-05-11T00:03:15.556Z,2.72
2017-05-11T00:05:43.848Z,3.16
2017-05-11T00:08:12.910Z,3.28
2017-05-11T00:10:42.013Z,2.84
2017-05-11T00:13:10.302Z,3.26
2017-05-11T00:15:39.361Z,3.30
2017-05-11T00:18:08.474Z,3.54
2017-05-11T00:20:37.535Z,3.58
2017-05-11T00:23:05.828Z,3.38
2017-05-11T00:25:34.158Z,3.24
2017-05-11T00:28:02.455Z,2.88
2017-05-11T00:30:31.554Z,2.98
2017-05-11T00:32:59.915Z,3.48
2017-05-11T00:35:28.218Z,3.50
2017-05-11T00:37:56.510Z,2.64
2017-05-11T00:40:25.599Z,4.02
2017-05-11T00:42:53.897Z,3.32
2017-05-11T00:45:22.961Z,3.16
2017-05-11T00:47:51.301Z,3.10
2017-05-11T00:50:20.370Z,3.00
2017-05-11T00:52:49.457Z,2.86
2017-05-11T00:55:18.505Z,2.48
2017-05-11T00:57:46.803Z,3.48
2017-05-11T01:00:15.125Z,3.36
2017-05-11T01:02:43.419Z,3.54
2017-05-11T01:05:11.742Z,3.70
2017-05-11T01:07:40.032Z,3.98
2017-05-11T01:10:09.089Z,3.34
2017-05-11T01:12:37.485Z,3.84
2017-05-11T01:15:05.774Z,3.50
2017-05-11T01:17:34.075Z,4.20
2017-05-11T01:20:02.412Z,4.18
2017-05-11T01:22:30.714Z,3.80
2017-05-11T01:24:59.006Z,3.48
2017-05-11T01:27:28.126Z,3.24
2017-05-11T01:29:56.419Z,4.02
2017-05-11T01:32:25.771Z,4.40
2017-05-11T01:34:54.854Z,4.24
2017-05-11T01:37:23.909Z,3.76
2017-05-11T01:39:53.011Z,3.12
2017-05-11T01:42:21.300Z,3.48
2017-05-11T01:44:49.588Z,3.22
2017-05-11T01:47:18.712Z,3.72
2017-05-11T01:49:47.758Z,3.72
2017-05-11T01:52:16.863Z,3.52
2017-05-11T01:54:45.168Z,4.24
2017-05-11T01:57:13.456Z,3.66
2017-05-11T01:59:42.750Z,4.32
2017-05-11T02:02:11.808Z,4.10
2017-05-11T02:04:40.149Z,3.70
2017-05-11T02:07:08.429Z,4.34
2017-05-11T02:09:36.721Z,3.94
2017-05-11T02:12:05.059Z,3.64
2017-05-11T02:14:34.124Z,4.24
2017-05-11T02:17:02.420Z,3.48
2017-05-11T02:19:30.749Z,4.04
2017-05-11T02:21:59.036Z,4.16
2017-05-11T02:24:27.343Z,3.48
2017-05-11T02:26:55.679Z,3.88
2017-05-11T02:29:23.968Z,3.92
2017-05-11T02:31:52.269Z,3.46
2017-05-11T02:34:20.825Z,3.76
2017-05-11T02:36:49.105Z,4.34
2017-05-11T02:39:17.397Z,4.50
2017-05-11T02:41:45.727Z,3.02
2017-05-11T02:44:14.018Z,3.88
2017-05-11T02:46:42.312Z,3.52
2017-05-11T02:49:10.652Z,3.06
2017-05-11T02:51:39.827Z,3.50
2017-05-11T02:54:08.133Z,4.16
2017-05-11T02:56:36.463Z,4.26
2017-05-11T02:59:05.733Z,3.94
2017-05-11T03:01:34.013Z,4.06
2017-05-11T03:04:02.351Z,3.60
2017-05-11T03:06:31.398Z,3.30
2017-05-11T03:09:00.495Z,3.34
2017-05-11T03:11:28.782Z,4.34
2017-05-11T03:13:57.069Z,4.26
2017-05-11T03:16:25.673Z,3.92
2017-05-11T03:18:54.729Z,4.22
2017-05-11T03:21:23.018Z,4.66
2017-05-11T03:23:52.111Z,4.32
2017-05-11T03:26:20.402Z,4.18
2017-05-11T03:28:48.694Z,3.78
2017-05-11T03:31:17.788Z,4.36
2017-05-11T03:33:46.849Z,4.12
2017-05-11T03:36:15.138Z,5.10
2017-05-11T03:38:44.998Z,4.26
2017-05-11T03:41:13.326Z,4.06
2017-05-11T03:43:41.619Z,3.78
2017-05-11T03:46:09.946Z,4.12
2017-05-11T03:48:38.234Z,5.88
2017-05-11T03:51:06.638Z,4.32
2017-05-11T03:53:34.953Z,4.66
2017-05-11T03:56:03.261Z,4.66
2017-05-11T03:58:31.579Z,4.24
2017-05-11T04:00:59.917Z,4.24
2017-05-11T04:03:28.983Z,4.30
2017-05-11T04:05:58.077Z,4.36
2017-05-11T04:08:27.134Z,3.90
2017-05-11T04:10:55.419Z,4.60
2017-05-11T04:13:23.750Z,4.34
2017-05-11T04:15:52.033Z,4.56
2017-05-11T04:18:20.326Z,4.20
2017-05-11T04:20:48.649Z,4.62
2017-05-11T04:23:17.698Z,3.60
2017-05-11T04:25:45.986Z,4.50
2017-05-11T04:28:14.325Z,4.92
2017-05-11T04:30:43.406Z,4.96
2017-05-11T04:33:12.505Z,4.86
2017-05-11T04:35:41.559Z,3.64
2017-05-11T04:38:11.401Z,4.80
2017-05-11T04:40:40.450Z,4.06
2017-05-11T04:43:08.741Z,4.86
2017-05-11T04:45:37.070Z,5.32
2017-05-11T04:48:05.354Z,5.44
2017-05-11T04:50:33.730Z,4.36
2017-05-11T04:53:02.049Z,4.46
2017-05-11T04:55:30.335Z,4.00
2017-05-11T04:57:58.618Z,4.80
2017-05-11T05:00:27.195Z,4.54
2017-05-11T05:02:55.605Z,4.64
2017-05-11T05:05:24.655Z,3.42
2017-05-11T05:07:52.978Z,4.14
2017-05-11T05:10:22.044Z,4.32
2017-05-11T05:12:50.333Z,4.62
2017-05-11T05:15:18.658Z,4.26
2017-05-11T05:17:46.944Z,4.38
2017-05-11T05:20:15.233Z,4.18
2017-05-11T05:22:43.561Z,4.54
2017-05-11T05:25:12.760Z,5.36
2017-05-11T05:27:41.877Z,4.78
2017-05-11T05:30:10.957Z,4.98
2017-05-11T05:32:39.251Z,6.22
2017-05-11T05:35:07.592Z,5.38
2017-05-11T05:37:35.883Z,5.26
2017-05-11T05:40:04.941Z,4.66
2017-05-11T05:42:33.272Z,4.58
2017-05-11T05:45:01.593Z,4.40
2017-05-11T05:47:29.893Z,4.54
2017-05-11T05:49:59.013Z,3.92
2017-05-11T05:52:28.282Z,4.86
2017-05-11T05:54:56.577Z,3.90
2017-05-11T05:57:25.668Z,4.82
2017-05-11T05:59:54.730Z,3.96
2017-05-11T06:02:24.112Z,4.10
2017-05-11T06:04:52.571Z,6.16
2017-05-11T06:07:20.860Z,4.80
2017-05-11T06:09:49.218Z,4.68
2017-05-11T06:12:17.511Z,4.60
2017-05-11T06:14:46.654Z,4.12
2017-05-11T06:17:15.747Z,4.24
2017-05-11T06:19:44.041Z,3.94
2017-05-11T06:22:12.356Z,4.60
2017-05-11T06:24:40.715Z,4.26
2017-05-11T06:27:09.013Z,4.38
2017-05-11T06:29:37.307Z,4.10
2017-05-11T06:32:05.655Z,4.06
2017-05-11T06:34:33.957Z,3.90
2017-05-11T06:37:02.251Z,3.50
2017-05-11T06:39:30.574Z,3.80
2017-05-11T06:41:58.895Z,3.90
2017-05-11T06:44:27.201Z,3.42
2017-05-11T06:46:56.294Z,3.76
2017-05-11T06:49:25.363Z,4.04
2017-05-11T06:51:53.661Z,3.66
2017-05-11T06:54:22.010Z,3.70
2017-05-11T06:56:50.310Z,4.14
2017-05-11T06:59:18.604Z,3.66
2017-05-11T07:01:47.729Z,3.76
2017-05-11T07:04:16.034Z,4.06
2017-05-11T07:06:44.334Z,4.00
2017-05-11T07:09:12.676Z,4.20
2017-05-11T07:11:40.966Z,3.52
2017-05-11T07:14:09.263Z,4.00
2017-05-11T07:16:37.593Z,4.98
2017-05-11T07:19:05.885Z,4.06
2017-05-11T07:21:34.197Z,3.90
2017-05-11T07:24:02.534Z,4.36
2017-05-11T07:26:30.858Z,4.44
2017-05-11T07:28:59.157Z,4.32
2017-05-11T07:31:28.245Z,4.10
2017-05-11T07:33:57.309Z,4.48
2017-05-11T07:36:25.650Z,4.86
2017-05-11T07:38:53.958Z,3.94
2017-05-11T07:41:23.019Z,4.48
2017-05-11T07:43:51.361Z,5.00
2017-05-11T07:46:20.422Z,5.28
2017-05-11T07:48:48.718Z,4.32
2017-05-11T07:51:17.059Z,3.72
2017-05-11T07:53:45.355Z,4.58
2017-05-11T07:56:13.646Z,4.08
2017-05-11T07:58:41.991Z,4.34
2017-05-11T08:01:10.285Z,4.36
2017-05-11T08:03:38.574Z,3.72
2017-05-11T08:06:06.924Z,4.42
2017-05-11T08:08:35.224Z,3.76
2017-05-11T08:11:03.517Z,4.30
2017-05-11T08:13:31.854Z,4.50
2017-05-11T08:16:00.152Z,4.58
2017-05-11T08:18:28.635Z,4.80
2017-05-11T08:20:56.975Z,4.32
2017-05-11T08:23:25.274Z,4.52
2017-05-11T08:25:53.569Z,4.40
2017-05-11T08:28:21.918Z,4.12
2017-05-11T08:30:50.215Z,4.22
2017-05-11T08:33:18.505Z,3.88
2017-05-11T08:35:46.882Z,4.52
2017-05-11T08:38:15.181Z,4.14
2017-05-11T08:40:43.478Z,3.86
2017-05-11T08:43:12.587Z,3.68
2017-05-11T08:45:40.894Z,3.22
2017-05-11T08:48:09.190Z,5.34
2017-05-11T08:50:37.530Z,4.18
2017-05-11T08:53:05.825Z,3.82
2017-05-11T08:55:34.123Z,4.04
2017-05-11T08:58:02.457Z,4.24
2017-05-11T09:00:30.774Z,4.30
2017-05-11T09:02:59.080Z,3.26
2017-05-11T09:05:28.197Z,3.64
2017-05-11T09:07:57.257Z,4.30
2017-05-11T09:10:25.626Z,4.12
2017-05-11T09:12:53.970Z,3.92
2017-05-11T09:15:22.266Z,4.32
2017-05-11T09:17:50.560Z,4.58
2017-05-11T09:20:18.903Z,3.90
2017-05-11T09:22:47.208Z,4.12
2017-05-11T09:25:15.515Z,4.78
2017-05-11T09:27:44.631Z,4.36
2017-05-11T09:30:13.698Z,3.32
2017-05-11T09:32:41.998Z,4.40
2017-05-11T09:35:11.124Z,4.12
2017-05-11T09:37:39.421Z,4.10
2017-05-11T09:40:07.714Z,4.00
2017-05-11T09:42:36.054Z,3.80
2017-05-11T09:45:04.342Z,4.42
2017-05-11T09:47:32.649Z,4.90
2017-05-11T09:50:00.986Z,5.02
2017-05-11T09:52:29.676Z,4.38
2017-05-11T09:54:57.967Z,4.10
2017-05-11T09:57:26.289Z,4.10
2017-05-11T09:59:55.357Z,4.58
2017-05-11T10:02:23.684Z,4.06
2017-05-11T10:04:51.994Z,3.78
2017-05-11T10:07:20.299Z,4.18
2017-05-11T10:09:50.141Z,3.88
2017-05-11T10:12:18.452Z,3.44
2017-05-11T10:14:46.753Z,3.36
2017-05-11T10:17:16.469Z,3.20
2017-05-11T10:19:44.775Z,3.56
2017-05-11T10:22:13.853Z,3.32
2017-05-11T10:24:42.218Z,3.20
2017-05-11T10:27:10.518Z,4.00
2017-05-11T10:29:38.815Z,2.80
2017-05-11T10:32:07.185Z,2.92
2017-05-11T10:34:36.254Z,2.78
2017-05-11T10:37:04.546Z,2.16
2017-05-11T10:39:32.879Z,1.82
2017-05-11T10:42:01.182Z,1.80
2017-05-11T10:44:31.170Z,1.90
2017-05-11T10:46:59.510Z,1.80
2017-05-11T10:49:28.740Z,1.28
2017-05-11T10:51:57.850Z,1.84
2017-05-11T10:54:26.186Z,1.88
2017-05-11T10:56:55.259Z,1.66
2017-05-11T10:59:23.552Z,1.60
2017-05-11T11:01:52.650Z,1.90
2017-05-11T11:04:21.709Z,1.90
2017-05-11T11:06:50.002Z,1.98
2017-05-11T11:09:20.118Z,2.22
2017-05-11T11:11:49.194Z,1.70
2017-05-11T11:14:17.490Z,1.70
2017-05-11T11:16:45.851Z,1.76
2017-05-11T11:19:14.146Z,1.56
2017-05-11T11:21:42.442Z,1.14
2017-05-11T11:24:11.574Z,1.66
2017-05-11T11:26:39.869Z,1.40
2017-05-11T11:29:08.169Z,2.00
2017-05-11T11:31:36.503Z,1.26
2017-05-11T11:34:04.801Z,1.60
2017-05-11T11:36:33.201Z,1.36
2017-05-11T11:39:01.533Z,1.66
2017-05-11T11:41:29.833Z,1.60
2017-05-11T11:43:58.133Z,1.50
2017-05-11T11:46:26.470Z,1.66
2017-05-11T11:48:54.788Z,1.38
2017-05-11T11:51:23.078Z,2.10
2017-05-11T11:53:51.426Z,1.10
2017-05-11T11:56:19.725Z,1.78
2017-05-11T11:58:49.582Z,1.48
2017-05-11T12:01:19.227Z,1.30
2017-05-11T12:03:47.541Z,1.42
2017-05-11T12:06:16.647Z,1.78
2017-05-11T12:08:45.986Z,1.18
2017-05-11T12:11:14.281Z,1.46
2017-05-11T12:13:42.634Z,1.12
2017-05-11T12:16:10.927Z,1.22
2017-05-11T12:18:39.221Z,1.40
2017-05-11T12:21:07.562Z,1.12
2017-05-11T12:23:35.862Z,1.20
2017-05-11T12:26:04.930Z,1.10
2017-05-11T12:28:33.453Z,1.06
2017-05-11T12:31:01.744Z,1.32
2017-05-11T12:33:30.038Z,1.12
2017-05-11T12:35:59.137Z,1.28
2017-05-11T12:38:28.199Z,1.64
2017-05-11T12:40:56.489Z,1.76
2017-05-11T12:43:24.816Z,0.96
2017-05-11T12:45:53.140Z,0.90
2017-05-11T12:48:21.436Z,0.90
2017-05-11T12:50:50.572Z,0.96
2017-05-11T12:53:18.875Z,1.06
2017-05-11T12:55:47.173Z,0.94
2017-05-11T12:58:15.510Z,1.42
2017-05-11T13:00:43.808Z,1.72
2017-05-11T13:03:12.869Z,1.34
2017-05-11T13:05:41.206Z,1.14
2017-05-11T13:08:09.501Z,1.14
2017-05-11T13:10:38.565Z,2.22
2017-05-11T13:13:06.907Z,1.22
2017-05-11T13:15:35.193Z,1.10
2017-05-11T13:18:04.259Z,1.44
2017-05-11T13:20:33.029Z,1.40
2017-05-11T13:23:02.091Z,1.54
2017-05-11T13:25:30.391Z,1.42
2017-05-11T13:27:58.955Z,1.40
2017-05-11T13:30:27.260Z,1.54
2017-05-11T13:32:56.336Z,1.20
2017-05-11T13:35:26.194Z,1.46
2017-05-11T13:37:54.499Z,1.20
2017-05-11T13:40:22.794Z,1.20
2017-05-11T13:42:51.126Z,1.38
2017-05-11T13:45:19.433Z,1.16
2017-05-11T13:47:47.727Z,1.04
2017-05-11T13:50:16.088Z,1.10
2017-05-11T13:52:44.386Z,1.50
2017-05-11T13:55:12.687Z,1.38
2017-05-11T13:57:41.797Z,1.40
2017-05-11T14:00:10.862Z,1.28
2017-05-11T14:02:39.160Z,1.30
2017-05-11T14:05:08.265Z,1.32
2017-05-11T14:07:37.332Z,1.56
2017-05-11T14:10:05.638Z,1.74
2017-05-11T14:12:34.850Z,1.56
2017-05-11T14:15:03.149Z,1.64
2017-05-11T14:17:31.449Z,1.70
2017-05-11T14:19:59.785Z,1.56
2017-05-11T14:22:28.850Z,1.52
2017-05-11T14:24:57.950Z,2.04
2017-05-11T14:27:27.057Z,2.36
2017-05-11T14:29:56.117Z,1.98
2017-05-11T14:32:24.421Z,1.74
2017-05-11T14:34:53.517Z,1.64
2017-05-11T14:37:22.578Z,1.60
2017-05-11T14:39:50.869Z,1.56
2017-05-11T14:42:19.207Z,1.62
2017-05-11T14:44:48.262Z,1.50
2017-05-11T14:47:17.361Z,1.68
2017-05-11T14:49:46.425Z,1.98
2017-05-11T14:52:14.758Z,1.56
2017-05-11T14:54:43.052Z,1.08
2017-05-11T14:57:11.341Z,1.52
2017-05-11T14:59:39.691Z,1.88
2017-05-11T15:02:07.988Z,1.84
2017-05-11T15:04:36.639Z,1.94
2017-05-11T15:07:04.985Z,1.72
2017-05-11T15:09:33.317Z,1.68
2017-05-11T15:12:01.657Z,1.34
2017-05-11T15:14:30.770Z,1.66
2017-05-11T15:16:59.136Z,1.76
2017-05-11T15:19:28.197Z,1.60
2017-05-11T15:21:56.562Z,2.30
2017-05-11T15:24:24.859Z,1.72
2017-05-11T15:26:53.159Z,1.54
2017-05-11T15:29:22.253Z,1.72
2017-05-11T15:31:51.321Z,1.64
2017-05-11T15:34:19.611Z,1.58
2017-05-11T15:36:47.947Z,2.12
2017-05-11T15:39:17.002Z,2.00
2017-05-11T15:41:46.113Z,1.72
2017-05-11T15:44:14.449Z,1.92
2017-05-11T15:46:44.310Z,1.72
2017-05-11T15:49:13.386Z,1.58
2017-05-11T15:51:42.491Z,2.96
2017-05-11T15:54:10.809Z,1.68
2017-05-11T15:56:39.102Z,1.76
2017-05-11T15:59:07.485Z,1.70
2017-05-11T16:01:35.792Z,1.90
2017-05-11T16:04:04.869Z,1.40
2017-05-11T16:06:33.205Z,1.54
2017-05-11T16:09:01.501Z,1.86
2017-05-11T16:11:29.794Z,1.46
2017-05-11T16:13:58.146Z,1.68
2017-05-11T16:16:26.643Z,1.24
2017-05-11T16:18:54.942Z,1.40
2017-05-11T16:21:23.274Z,1.76
2017-05-11T16:23:51.575Z,1.40
2017-05-11T16:26:19.871Z,1.52
2017-05-11T16:28:48.212Z,1.48
2017-05-11T16:31:16.506Z,1.34
2017-05-11T16:33:45.279Z,1.60
2017-05-11T16:36:13.611Z,1.42
2017-05-11T16:38:41.904Z,1.18
2017-05-11T16:41:10.206Z,1.82
2017-05-11T16:43:38.547Z,1.70
2017-05-11T16:46:06.833Z,1.50
2017-05-11T16:48:35.311Z,1.54
2017-05-11T16:51:03.650Z,1.70
2017-05-11T16:53:32.719Z,1.54
2017-05-11T16:56:01.835Z,1.54
2017-05-11T16:58:30.132Z,1.32
2017-05-11T17:00:59.194Z,1.68
2017-05-11T17:03:28.316Z,1.72
2017-05-11T17:05:56.612Z,1.60
2017-05-11T17:08:24.905Z,1.84
2017-05-11T17:10:53.239Z,1.56
2017-05-11T17:13:21.541Z,1.76
2017-05-11T17:15:49.842Z,4.24
2017-05-11T17:18:18.216Z,1.82
2017-05-11T17:20:46.511Z,1.92
2017-05-11T17:23:15.580Z,1.94
2017-05-11T17:25:43.929Z,1.82
2017-05-11T17:28:12.988Z,1.80
2017-05-11T17:30:42.085Z,1.54
2017-05-11T17:33:11.142Z,1.94
2017-05-11T17:35:39.436Z,1.80
2017-05-11T17:38:07.788Z,2.36
2017-05-11T17:40:36.261Z,1.84
2017-05-11T17:43:05.338Z,2.22
2017-05-11T17:45:33.689Z,2.26
2017-05-11T17:48:02.759Z,1.62
2017-05-11T17:50:31.053Z,1.84
2017-05-11T17:53:00.164Z,1.72
2017-05-11T17:55:29.227Z,1.70
2017-05-11T17:57:57.521Z,1.10
2017-05-11T18:00:26.630Z,1.44
2017-05-11T18:02:55.686Z,1.48
2017-05-11T18:05:24.002Z,1.08
2017-05-11T18:07:53.109Z,0.82
2017-05-11T18:10:21.402Z,1.56
2017-05-11T18:12:49.703Z,1.20
2017-05-11T18:15:18.049Z,1.24
2017-05-11T18:17:46.343Z,1.30
2017-05-11T18:20:14.645Z,0.82
2017-05-11T18:22:43.026Z,1.16
2017-05-11T18:25:11.321Z,1.00
2017-05-11T18:27:39.624Z,1.14
2017-05-11T18:30:07.945Z,1.10
2017-05-11T18:32:37.025Z,1.62
2017-05-11T18:35:05.377Z,1.06
2017-05-11T18:37:33.678Z,1.04
2017-05-11T18:40:02.073Z,1.60
2017-05-11T18:42:30.411Z,1.26
2017-05-11T18:44:58.709Z,1.32
2017-05-11T18:47:27.001Z,1.38
2017-05-11T18:49:55.341Z,1.30
2017-05-11T18:52:24.406Z,1.80
2017-05-11T18:54:52.711Z,1.70
2017-05-11T18:57:21.821Z,2.04
2017-05-11T18:59:50.118Z,1.20
2017-05-11T19:02:18.417Z,0.92
2017-05-11T19:04:46.882Z,1.28
2017-05-11T19:07:15.175Z,1.14
2017-05-11T19:09:43.486Z,1.56
2017-05-11T19:12:12.583Z,1.12
2017-05-11T19:14:41.648Z,0.98
2017-05-11T19:17:09.945Z,1.38
2017-05-11T19:19:38.284Z,1.50
2017-05-11T19:22:06.585Z,1.24
2017-05-11T19:24:34.906Z,1.02
2017-05-11T19:27:03.247Z,1.00
2017-05-11T19:29:31.546Z,1.04
2017-05-11T19:32:00.607Z,1.08
2017-05-11T19:34:28.953Z,1.40
2017-05-11T19:36:57.246Z,1.00
2017-05-11T19:39:25.538Z,0.88
2017-05-11T19:41:53.874Z,0.90
2017-05-11T19:44:22.170Z,1.72
2017-05-11T19:46:50.465Z,1.08
2017-05-11T19:49:18.803Z,1.10
2017-05-11T19:51:47.100Z,1.12
2017-05-11T19:54:15.402Z,0.84
2017-05-11T19:56:43.747Z,1.20
2017-05-11T19:59:12.041Z,1.08
2017-05-11T20:01:40.339Z,0.98
2017-05-11T20:04:08.670Z,1.12
2017-05-11T20:06:36.991Z,0.98
2017-05-11T20:09:05.288Z,0.90
2017-05-11T20:11:33.622Z,1.32
2017-05-11T20:14:01.911Z,1.06
2017-05-11T20:16:30.202Z,1.08
2017-05-11T20:18:58.540Z,1.08
2017-05-11T20:21:26.835Z,1.36
2017-05-11T20:23:55.126Z,1.20
2017-05-11T20:26:23.462Z,1.88
2017-05-11T20:28:51.752Z,1.42
2017-05-11T20:31:20.037Z,1.44
2017-05-11T20:33:48.366Z,1.40
2017-05-11T20:36:17.421Z,1.32
2017-05-11T20:38:45.713Z,1.40
2017-05-11T20:41:14.064Z,1.30
2017-05-11T20:43:42.365Z,1.70
2017-05-11T20:46:10.658Z,1.36
2017-05-11T20:48:39.357Z,1.50
2017-05-11T20:51:08.413Z,1.26
2017-05-11T20:53:36.729Z,1.38
2017-05-11T20:56:05.823Z,1.56
2017-05-11T20:58:34.934Z,1.30
2017-05-11T21:01:04.047Z,1.20
2017-05-11T21:03:32.371Z,1.20
2017-05-11T21:06:00.673Z,1.10
2017-05-11T21:08:29.774Z,2.04
2017-05-11T21:10:58.848Z,1.38
2017-05-11T21:13:27.145Z,1.30
2017-05-11T21:15:56.253Z,1.26
2017-05-11T21:18:24.555Z,1.30
2017-05-11T21:20:52.858Z,1.80
2017-05-11T21:23:21.195Z,1.28
2017-05-11T21:25:49.490Z,1.50
2017-05-11T21:28:17.780Z,1.76
2017-05-11T21:30:46.117Z,1.30
2017-05-11T21:33:14.418Z,1.66
2017-05-11T21:35:42.710Z,1.52
2017-05-11T21:38:11.046Z,1.42
2017-05-11T21:40:40.319Z,1.56
2017-05-11T21:43:08.640Z,1.44
2017-05-11T21:45:36.974Z,1.66
2017-05-11T21:48:05.270Z,1.46
2017-05-11T21:50:34.371Z,1.62
2017-05-11T21:53:03.485Z,1.30
2017-05-11T21:55:31.786Z,1.96
2017-05-11T21:58:00.080Z,1.98
2017-05-11T22:00:29.169Z,1.74
2017-05-11T22:02:57.461Z,1.60
2017-05-11T22:05:25.753Z,1.80
2017-05-11T22:07:54.087Z,1.40
2017-05-11T22:10:22.376Z,1.66
2017-05-11T22:12:50.673Z,1.42
2017-05-11T22:15:19.012Z,1.42
2017-05-11T22:17:47.305Z,1.90
2017-05-11T22:20:15.605Z,1.86
2017-05-11T22:22:43.945Z,1.52
2017-05-11T22:25:12.237Z,1.88
2017-05-11T22:27:40.548Z,2.16
2017-05-11T22:30:08.883Z,1.50
2017-05-11T22:32:37.181Z,1.80
2017-05-11T22:35:05.470Z,1.58
2017-05-11T22:37:33.836Z,1.20
2017-05-11T22:40:02.145Z,1.38
2017-05-11T22:42:30.460Z,1.36
2017-05-11T22:44:58.792Z,1.40
2017-05-11T22:47:27.863Z,1.50
2017-05-11T22:49:56.215Z,1.36
2017-05-11T22:52:24.558Z,1.72
2017-05-11T22:54:53.613Z,2.20
2017-05-11T22:57:21.905Z,2.00
2017-05-11T22:59:50.242Z,1.74
2017-05-11T23:02:18.539Z,2.28
2017-05-11T23:04:46.831Z,2.04
2017-05-11T23:07:15.297Z,1.62
2017-05-11T23:09:43.594Z,1.88
2017-05-11T23:12:11.886Z,1.72
2017-05-11T23:14:41.192Z,1.60
2017-05-11T23:17:10.277Z,2.08
2017-05-11T23:19:38.586Z,1.84
2017-05-11T23:22:06.919Z,1.72
2017-05-11T23:24:35.217Z,1.84
2017-05-11T23:27:04.283Z,2.18
2017-05-11T23:29:32.617Z,1.88
2017-05-11T23:32:01.129Z,1.64
2017-05-11T23:34:29.418Z,1.50
2017-05-11T23:36:58.519Z,1.60
2017-05-11T23:39:26.821Z,1.86
2017-05-11T23:41:55.149Z,2.00
2017-05-11T23:44:23.486Z,1.90
2017-05-11T23:46:52.545Z,1.72
2017-05-11T23:49:20.846Z,1.74
2017-05-11T23:51:49.189Z,1.28
2017-05-11T23:54:17.493Z,2.10
2017-05-11T23:56:45.791Z,1.80
2017-05-11T23:59:14.887Z,1.88
